sensor_id;sensor_type;location;lat;lon;timestamp;P1;durP1;ratioP1;P2;durP2;ratioP2
13455;SDS011;6800;50.940;6.940;2022-08-11T00:02:34;4.97;;;3.30;;
13455;SDS011;6800;50.940;6.940;2022-08-11T00:06:37;4.20;;;3.30;;
13455;SDS011;6800;50.940;6.940;2022-08-11T00:10:39;3.72;;;3.25;;
13455;SDS011;6800;50.940;6.940;2022-08-11T00:14:40;3.05;;;2.75;;
13455;SDS011;6800;50.940;6.940;2022-08-11T00:18:50;5.18;;;2.80;;
13455;SDS011;6800;50.940;6.940;2022-08-11T00:22:52;4.18;;;2.67;;
13455;SDS011;6800;50.940;6.940;2022-08-11T00:26:59;3.38;;;3.05;;
13455;SDS011;6800;50.940;6.940;2022-08-11T00:31:06;3.40;;;2.83;;
13455;SDS011;6800;50.940;6.940;2022-08-11T00:35:10;2.90;;;2.60;;
13455;SDS011;6800;50.940;6.940;2022-08-11T00:39:13;2.88;;;2.67;;
13455;SDS011;6800;50.940;6.940;2022-08-11T00:43:35;3.30;;;3.00;;
13455;SDS011;6800;50.940;6.940;2022-08-11T01:01:04;3.13;;;2.83;;
13455;SDS011;6800;50.940;6.940;2022-08-11T01:49:53;3.25;;;2.42;;
13455;SDS011;6800;50.940;6.940;2022-08-11T01:58:29;3.47;;;2.67;;
13455;SDS011;6800;50.940;6.940;2022-08-11T02:02:57;5.28;;;2.83;;
13455;SDS011;6800;50.940;6.940;2022-08-11T02:11:45;4.75;;;2.40;;
13455;SDS011;6800;50.940;6.940;2022-08-11T02:15:51;6.15;;;2.67;;
13455;SDS011;6800;50.940;6.940;2022-08-11T02:20:06;3.72;;;3.42;;
13455;SDS011;6800;50.940;6.940;2022-08-11T02:24:40;4.40;;;3.00;;
13455;SDS011;6800;50.940;6.940;2022-08-11T02:33:15;4.88;;;3.70;;
13455;SDS011;6800;50.940;6.940;2022-08-11T02:37:26;4.53;;;3.17;;
13455;SDS011;6800;50.940;6.940;2022-08-11T02:50:18;4.38;;;3.53;;
13455;SDS011;6800;50.940;6.940;2022-08-11T02:58:54;4.20;;;3.67;;
13455;SDS011;6800;50.940;6.940;2022-08-11T03:07:31;2.83;;;2.63;;
13455;SDS011;6800;50.940;6.940;2022-08-11T03:11:51;5.40;;;3.13;;
13455;SDS011;6800;50.940;6.940;2022-08-11T03:16:28;3.70;;;2.55;;
13455;SDS011;6800;50.940;6.940;2022-08-11T03:25:09;3.95;;;2.78;;
13455;SDS011;6800;50.940;6.940;2022-08-11T03:29:24;3.72;;;2.50;;
13455;SDS011;6800;50.940;6.940;2022-08-11T03:34:02;7.28;;;2.67;;
13455;SDS011;6800;50.940;6.940;2022-08-11T03:38:03;4.38;;;2.85;;
13455;SDS011;6800;50.940;6.940;2022-08-11T03:55:18;4.45;;;2.47;;
13455;SDS011;6800;50.940;6.940;2022-08-11T04:31:42;5.32;;;3.08;;
13455;SDS011;6800;50.940;6.940;2022-08-11T04:40:34;6.35;;;3.15;;
13455;SDS011;6800;50.940;6.940;2022-08-11T04:44:49;3.05;;;2.65;;
13455;SDS011;6800;50.940;6.940;2022-08-11T05:13:03;3.58;;;2.72;;
13455;SDS011;6800;50.940;6.940;2022-08-11T05:17:35;5.20;;;2.88;;
13455;SDS011;6800;50.940;6.940;2022-08-11T05:21:58;6.30;;;3.08;;
13455;SDS011;6800;50.940;6.940;2022-08-11T05:26:17;5.20;;;3.47;;
13455;SDS011;6800;50.940;6.940;2022-08-11T05:30:39;3.97;;;3.15;;
13455;SDS011;6800;50.940;6.940;2022-08-11T05:35:01;4.88;;;2.83;;
13455;SDS011;6800;50.940;6.940;2022-08-11T05:39:10;3.25;;;2.88;;
13455;SDS011;6800;50.940;6.940;2022-08-11T05:43:33;5.47;;;2.70;;
13455;SDS011;6800;50.940;6.940;2022-08-11T05:47:58;4.57;;;2.92;;
13455;SDS011;6800;50.940;6.940;2022-08-11T05:52:22;3.80;;;2.78;;
13455;SDS011;6800;50.940;6.940;2022-08-11T05:56:43;4.60;;;2.78;;
13455;SDS011;6800;50.940;6.940;2022-08-11T06:00:49;4.95;;;2.83;;
13455;SDS011;6800;50.940;6.940;2022-08-11T06:04:57;3.97;;;2.58;;
13455;SDS011;6800;50.940;6.940;2022-08-11T06:08:59;2.67;;;2.47;;
13455;SDS011;6800;50.940;6.940;2022-08-11T06:13:02;4.05;;;2.95;;
13455;SDS011;6800;50.940;6.940;2022-08-11T06:17:04;5.03;;;3.08;;
13455;SDS011;6800;50.940;6.940;2022-08-11T06:21:08;3.63;;;2.75;;
13455;SDS011;6800;50.940;6.940;2022-08-11T06:25:10;5.78;;;3.00;;
13455;SDS011;6800;50.940;6.940;2022-08-11T06:29:11;4.55;;;2.88;;
13455;SDS011;6800;50.940;6.940;2022-08-11T06:37:34;6.07;;;3.90;;
13455;SDS011;6800;50.940;6.940;2022-08-11T06:46:07;10.00;;;4.35;;
13455;SDS011;6800;50.940;6.940;2022-08-11T06:50:10;4.68;;;3.50;;
13455;SDS011;6800;50.940;6.940;2022-08-11T06:54:36;4.63;;;3.20;;
13455;SDS011;6800;50.940;6.940;2022-08-11T06:58:40;5.15;;;4.05;;
13455;SDS011;6800;50.940;6.940;2022-08-11T07:03:06;4.85;;;3.25;;
13455;SDS011;6800;50.940;6.940;2022-08-11T07:07:19;3.28;;;2.85;;
13455;SDS011;6800;50.940;6.940;2022-08-11T07:11:59;6.93;;;2.75;;
13455;SDS011;6800;50.940;6.940;2022-08-11T07:16:30;5.57;;;2.60;;
13455;SDS011;6800;50.940;6.940;2022-08-11T07:20:34;4.68;;;2.58;;
13455;SDS011;6800;50.940;6.940;2022-08-11T07:25:02;5.10;;;3.00;;
13455;SDS011;6800;50.940;6.940;2022-08-11T07:29:32;6.88;;;2.63;;
13455;SDS011;6800;50.940;6.940;2022-08-11T07:33:45;6.45;;;2.88;;
13455;SDS011;6800;50.940;6.940;2022-08-11T07:37:53;9.60;;;3.80;;
13455;SDS011;6800;50.940;6.940;2022-08-11T07:41:58;8.93;;;3.33;;
13455;SDS011;6800;50.940;6.940;2022-08-11T07:46:03;6.05;;;2.70;;
13455;SDS011;6800;50.940;6.940;2022-08-11T07:50:23;3.58;;;2.80;;
13455;SDS011;6800;50.940;6.940;2022-08-11T07:54:44;4.25;;;2.72;;
13455;SDS011;6800;50.940;6.940;2022-08-11T07:58:45;4.22;;;2.60;;
13455;SDS011;6800;50.940;6.940;2022-08-11T08:03:04;4.63;;;2.88;;
13455;SDS011;6800;50.940;6.940;2022-08-11T08:07:25;4.07;;;3.03;;
13455;SDS011;6800;50.940;6.940;2022-08-11T08:11:44;5.35;;;2.80;;
13455;SDS011;6800;50.940;6.940;2022-08-11T08:16:04;6.43;;;3.15;;
13455;SDS011;6800;50.940;6.940;2022-08-11T08:20:25;5.85;;;3.10;;
13455;SDS011;6800;50.940;6.940;2022-08-11T08:24:33;7.32;;;2.90;;
13455;SDS011;6800;50.940;6.940;2022-08-11T08:28:34;4.07;;;2.33;;
13455;SDS011;6800;50.940;6.940;2022-08-11T08:32:37;3.90;;;3.15;;
13455;SDS011;6800;50.940;6.940;2022-08-11T08:36:41;5.55;;;2.75;;
13455;SDS011;6800;50.940;6.940;2022-08-11T08:40:43;9.32;;;2.50;;
13455;SDS011;6800;50.940;6.940;2022-08-11T08:44:49;4.82;;;2.65;;
13455;SDS011;6800;50.940;6.940;2022-08-11T08:48:53;7.10;;;2.80;;
13455;SDS011;6800;50.940;6.940;2022-08-11T08:52:59;2.72;;;2.50;;
13455;SDS011;6800;50.940;6.940;2022-08-11T08:57:05;4.90;;;2.38;;
13455;SDS011;6800;50.940;6.940;2022-08-11T09:01:06;5.57;;;2.65;;
13455;SDS011;6800;50.940;6.940;2022-08-11T09:05:10;6.25;;;2.60;;
13455;SDS011;6800;50.940;6.940;2022-08-11T09:09:11;7.18;;;2.28;;
13455;SDS011;6800;50.940;6.940;2022-08-11T09:13:13;2.83;;;2.00;;
13455;SDS011;6800;50.940;6.940;2022-08-11T09:17:14;7.40;;;2.53;;
13455;SDS011;6800;50.940;6.940;2022-08-11T09:21:17;5.80;;;2.33;;
13455;SDS011;6800;50.940;6.940;2022-08-11T09:25:24;4.18;;;2.33;;
13455;SDS011;6800;50.940;6.940;2022-08-11T09:29:45;2.50;;;2.30;;
13455;SDS011;6800;50.940;6.940;2022-08-11T09:33:46;7.60;;;2.08;;
13455;SDS011;6800;50.940;6.940;2022-08-11T09:37:46;4.35;;;2.80;;
13455;SDS011;6800;50.940;6.940;2022-08-11T09:42:06;6.63;;;2.17;;
13455;SDS011;6800;50.940;6.940;2022-08-11T09:46:08;5.22;;;1.85;;
13455;SDS011;6800;50.940;6.940;2022-08-11T09:50:09;3.33;;;1.88;;
13455;SDS011;6800;50.940;6.940;2022-08-11T09:54:13;3.20;;;1.80;;
13455;SDS011;6800;50.940;6.940;2022-08-11T09:58:16;2.67;;;1.80;;
13455;SDS011;6800;50.940;6.940;2022-08-11T10:02:17;3.95;;;1.83;;
13455;SDS011;6800;50.940;6.940;2022-08-11T10:06:25;5.47;;;2.88;;
13455;SDS011;6800;50.940;6.940;2022-08-11T10:10:45;3.47;;;1.58;;
13455;SDS011;6800;50.940;6.940;2022-08-11T10:14:47;4.45;;;2.47;;
13455;SDS011;6800;50.940;6.940;2022-08-11T10:19:10;3.10;;;2.00;;
13455;SDS011;6800;50.940;6.940;2022-08-11T10:23:11;5.00;;;2.88;;
13455;SDS011;6800;50.940;6.940;2022-08-11T10:27:31;4.40;;;2.10;;
13455;SDS011;6800;50.940;6.940;2022-08-11T10:31:32;2.33;;;1.90;;
13455;SDS011;6800;50.940;6.940;2022-08-11T10:35:52;4.50;;;2.15;;
13455;SDS011;6800;50.940;6.940;2022-08-11T10:39:52;3.30;;;1.92;;
13455;SDS011;6800;50.940;6.940;2022-08-11T10:43:55;2.45;;;1.83;;
13455;SDS011;6800;50.940;6.940;2022-08-11T10:47:56;4.13;;;2.60;;
13455;SDS011;6800;50.940;6.940;2022-08-11T10:51:57;4.65;;;2.10;;
13455;SDS011;6800;50.940;6.940;2022-08-11T10:56:18;2.38;;;1.70;;
13455;SDS011;6800;50.940;6.940;2022-08-11T11:00:37;3.40;;;1.90;;
13455;SDS011;6800;50.940;6.940;2022-08-11T11:09:04;8.25;;;2.63;;
13455;SDS011;6800;50.940;6.940;2022-08-11T11:13:07;2.38;;;1.70;;
13455;SDS011;6800;50.940;6.940;2022-08-11T11:17:34;2.70;;;2.10;;
13455;SDS011;6800;50.940;6.940;2022-08-11T11:21:58;3.13;;;1.70;;
13455;SDS011;6800;50.940;6.940;2022-08-11T11:30:54;3.38;;;2.60;;
13455;SDS011;6800;50.940;6.940;2022-08-11T11:39:32;4.45;;;2.30;;
13455;SDS011;6800;50.940;6.940;2022-08-11T11:43:35;3.45;;;2.50;;
13455;SDS011;6800;50.940;6.940;2022-08-11T11:47:36;2.55;;;1.58;;
13455;SDS011;6800;50.940;6.940;2022-08-11T11:51:37;2.78;;;1.85;;
13455;SDS011;6800;50.940;6.940;2022-08-11T11:55:38;3.33;;;1.90;;
13455;SDS011;6800;50.940;6.940;2022-08-11T11:59:40;2.20;;;2.00;;
13455;SDS011;6800;50.940;6.940;2022-08-11T12:03:59;5.03;;;2.20;;
13455;SDS011;6800;50.940;6.940;2022-08-11T12:12:04;5.50;;;2.20;;
13455;SDS011;6800;50.940;6.940;2022-08-11T12:16:24;3.65;;;2.15;;
13455;SDS011;6800;50.940;6.940;2022-08-11T12:20:25;6.65;;;2.20;;
13455;SDS011;6800;50.940;6.940;2022-08-11T12:24:27;2.63;;;2.20;;
13455;SDS011;6800;50.940;6.940;2022-08-11T12:28:48;5.38;;;2.88;;
13455;SDS011;6800;50.940;6.940;2022-08-11T12:32:49;2.42;;;1.83;;
13455;SDS011;6800;50.940;6.940;2022-08-11T12:37:00;5.15;;;2.88;;
13455;SDS011;6800;50.940;6.940;2022-08-11T12:41:05;6.35;;;2.72;;
13455;SDS011;6800;50.940;6.940;2022-08-11T12:45:25;2.50;;;2.28;;
13455;SDS011;6800;50.940;6.940;2022-08-11T12:49:27;3.38;;;2.33;;
13455;SDS011;6800;50.940;6.940;2022-08-11T12:54:00;3.15;;;2.30;;
13455;SDS011;6800;50.940;6.940;2022-08-11T12:58:09;4.85;;;2.30;;
13455;SDS011;6800;50.940;6.940;2022-08-11T13:02:16;4.25;;;2.15;;
13455;SDS011;6800;50.940;6.940;2022-08-11T13:06:38;5.82;;;2.33;;
13455;SDS011;6800;50.940;6.940;2022-08-11T13:10:40;4.95;;;2.53;;
13455;SDS011;6800;50.940;6.940;2022-08-11T13:15:00;5.30;;;2.28;;
13455;SDS011;6800;50.940;6.940;2022-08-11T13:19:01;2.83;;;2.53;;
13455;SDS011;6800;50.940;6.940;2022-08-11T13:23:02;4.45;;;2.17;;
13455;SDS011;6800;50.940;6.940;2022-08-11T13:27:03;5.28;;;2.20;;
13455;SDS011;6800;50.940;6.940;2022-08-11T13:31:03;4.35;;;2.92;;
13455;SDS011;6800;50.940;6.940;2022-08-11T13:35:11;4.28;;;2.40;;
13455;SDS011;6800;50.940;6.940;2022-08-11T13:39:14;4.47;;;2.35;;
13455;SDS011;6800;50.940;6.940;2022-08-11T13:43:15;2.67;;;2.47;;
13455;SDS011;6800;50.940;6.940;2022-08-11T13:47:18;5.70;;;2.70;;
13455;SDS011;6800;50.940;6.940;2022-08-11T13:55:41;3.17;;;2.30;;
13455;SDS011;6800;50.940;6.940;2022-08-11T13:59:44;3.88;;;2.20;;
13455;SDS011;6800;50.940;6.940;2022-08-11T14:03:46;4.60;;;2.75;;
13455;SDS011;6800;50.940;6.940;2022-08-11T14:07:54;7.00;;;2.60;;
13455;SDS011;6800;50.940;6.940;2022-08-11T14:16:55;6.05;;;3.30;;
13455;SDS011;6800;50.940;6.940;2022-08-11T14:20:57;3.55;;;2.40;;
13455;SDS011;6800;50.940;6.940;2022-08-11T14:25:17;6.10;;;2.78;;
13455;SDS011;6800;50.940;6.940;2022-08-11T14:29:19;4.30;;;2.40;;
13455;SDS011;6800;50.940;6.940;2022-08-11T14:33:21;3.88;;;2.40;;
13455;SDS011;6800;50.940;6.940;2022-08-11T14:37:22;3.10;;;2.33;;
13455;SDS011;6800;50.940;6.940;2022-08-11T14:41:26;3.20;;;2.45;;
13455;SDS011;6800;50.940;6.940;2022-08-11T14:45:46;2.38;;;2.10;;
13455;SDS011;6800;50.940;6.940;2022-08-11T14:50:05;2.92;;;2.65;;
13455;SDS011;6800;50.940;6.940;2022-08-11T14:54:10;2.85;;;2.65;;
13455;SDS011;6800;50.940;6.940;2022-08-11T14:58:29;3.45;;;2.53;;
13455;SDS011;6800;50.940;6.940;2022-08-11T15:02:33;4.05;;;2.63;;
13455;SDS011;6800;50.940;6.940;2022-08-11T15:07:06;5.28;;;2.50;;
13455;SDS011;6800;50.940;6.940;2022-08-11T15:11:07;5.95;;;2.67;;
13455;SDS011;6800;50.940;6.940;2022-08-11T15:15:29;5.63;;;2.80;;
13455;SDS011;6800;50.940;6.940;2022-08-11T15:19:49;5.80;;;2.50;;
13455;SDS011;6800;50.940;6.940;2022-08-11T15:24:09;3.65;;;2.63;;
13455;SDS011;6800;50.940;6.940;2022-08-11T15:28:19;4.47;;;3.10;;
13455;SDS011;6800;50.940;6.940;2022-08-11T15:32:41;3.85;;;2.50;;
13455;SDS011;6800;50.940;6.940;2022-08-11T15:42:03;5.90;;;2.70;;
13455;SDS011;6800;50.940;6.940;2022-08-11T15:46:34;2.80;;;2.53;;
13455;SDS011;6800;50.940;6.940;2022-08-11T15:50:43;5.93;;;2.85;;
13455;SDS011;6800;50.940;6.940;2022-08-11T15:54:47;4.28;;;2.70;;
13455;SDS011;6800;50.940;6.940;2022-08-11T15:58:50;2.83;;;2.63;;
13455;SDS011;6800;50.940;6.940;2022-08-11T16:03:11;5.50;;;2.60;;
13455;SDS011;6800;50.940;6.940;2022-08-11T16:07:32;2.60;;;2.40;;
13455;SDS011;6800;50.940;6.940;2022-08-11T16:11:36;4.97;;;3.00;;
13455;SDS011;6800;50.940;6.940;2022-08-11T16:15:49;3.33;;;3.00;;
13455;SDS011;6800;50.940;6.940;2022-08-11T16:20:13;4.35;;;2.70;;
13455;SDS011;6800;50.940;6.940;2022-08-11T16:24:21;7.15;;;3.17;;
13455;SDS011;6800;50.940;6.940;2022-08-11T16:28:23;4.85;;;2.47;;
13455;SDS011;6800;50.940;6.940;2022-08-11T16:32:25;2.95;;;2.50;;
13455;SDS011;6800;50.940;6.940;2022-08-11T16:36:26;3.72;;;2.80;;
13455;SDS011;6800;50.940;6.940;2022-08-11T16:40:48;3.60;;;2.80;;
13455;SDS011;6800;50.940;6.940;2022-08-11T16:44:57;4.10;;;2.63;;
13455;SDS011;6800;50.940;6.940;2022-08-11T16:49:20;3.10;;;2.80;;
13455;SDS011;6800;50.940;6.940;2022-08-11T16:53:26;2.95;;;2.67;;
13455;SDS011;6800;50.940;6.940;2022-08-11T16:57:28;4.00;;;2.80;;
13455;SDS011;6800;50.940;6.940;2022-08-11T17:01:52;4.47;;;2.78;;
13455;SDS011;6800;50.940;6.940;2022-08-11T17:05:56;3.38;;;2.53;;
13455;SDS011;6800;50.940;6.940;2022-08-11T17:10:17;2.75;;;2.40;;
13455;SDS011;6800;50.940;6.940;2022-08-11T17:14:45;2.88;;;2.63;;
13455;SDS011;6800;50.940;6.940;2022-08-11T17:23:01;3.63;;;2.33;;
13455;SDS011;6800;50.940;6.940;2022-08-11T17:27:22;4.32;;;2.83;;
13455;SDS011;6800;50.940;6.940;2022-08-11T17:31:23;5.55;;;3.05;;
13455;SDS011;6800;50.940;6.940;2022-08-11T17:35:46;3.78;;;2.60;;
13455;SDS011;6800;50.940;6.940;2022-08-11T17:39:47;3.97;;;2.65;;
13455;SDS011;6800;50.940;6.940;2022-08-11T17:43:50;3.95;;;3.40;;
13455;SDS011;6800;50.940;6.940;2022-08-11T17:48:11;3.78;;;2.80;;
13455;SDS011;6800;50.940;6.940;2022-08-11T17:52:24;4.07;;;3.33;;
13455;SDS011;6800;50.940;6.940;2022-08-11T17:56:44;5.82;;;2.78;;
13455;SDS011;6800;50.940;6.940;2022-08-11T18:01:04;4.97;;;2.90;;
13455;SDS011;6800;50.940;6.940;2022-08-11T18:05:07;3.08;;;2.80;;
13455;SDS011;6800;50.940;6.940;2022-08-11T18:09:12;3.83;;;3.10;;
13455;SDS011;6800;50.940;6.940;2022-08-11T18:13:34;5.15;;;3.22;;
13455;SDS011;6800;50.940;6.940;2022-08-11T18:17:54;7.40;;;3.55;;
13455;SDS011;6800;50.940;6.940;2022-08-11T18:22:19;4.45;;;3.45;;
13455;SDS011;6800;50.940;6.940;2022-08-11T18:26:44;4.03;;;3.30;;
13455;SDS011;6800;50.940;6.940;2022-08-11T18:31:04;5.07;;;2.90;;
13455;SDS011;6800;50.940;6.940;2022-08-11T18:35:26;3.30;;;3.00;;
13455;SDS011;6800;50.940;6.940;2022-08-11T18:39:48;3.83;;;3.50;;
13455;SDS011;6800;50.940;6.940;2022-08-11T18:44:10;3.78;;;3.28;;
13455;SDS011;6800;50.940;6.940;2022-08-11T18:48:37;4.90;;;3.85;;
13455;SDS011;6800;50.940;6.940;2022-08-11T18:52:59;6.05;;;3.30;;
13455;SDS011;6800;50.940;6.940;2022-08-11T18:57:19;3.50;;;3.20;;
13455;SDS011;6800;50.940;6.940;2022-08-11T19:01:38;4.10;;;3.42;;
13455;SDS011;6800;50.940;6.940;2022-08-11T19:06:00;4.63;;;4.03;;
13455;SDS011;6800;50.940;6.940;2022-08-11T19:10:21;6.93;;;4.70;;
13455;SDS011;6800;50.940;6.940;2022-08-11T19:14:43;7.80;;;6.10;;
13455;SDS011;6800;50.940;6.940;2022-08-11T19:19:03;7.78;;;6.10;;
13455;SDS011;6800;50.940;6.940;2022-08-11T19:23:31;6.97;;;4.55;;
13455;SDS011;6800;50.940;6.940;2022-08-11T19:27:52;7.32;;;5.13;;
13455;SDS011;6800;50.940;6.940;2022-08-11T19:32:12;8.57;;;5.57;;
13455;SDS011;6800;50.940;6.940;2022-08-11T19:36:33;5.75;;;4.85;;
13455;SDS011;6800;50.940;6.940;2022-08-11T19:40:53;6.80;;;4.63;;
13455;SDS011;6800;50.940;6.940;2022-08-11T19:45:13;6.68;;;5.32;;
13455;SDS011;6800;50.940;6.940;2022-08-11T19:49:33;6.45;;;5.60;;
13455;SDS011;6800;50.940;6.940;2022-08-11T19:53:55;5.55;;;4.85;;
13455;SDS011;6800;50.940;6.940;2022-08-11T19:58:15;6.07;;;4.82;;
13455;SDS011;6800;50.940;6.940;2022-08-11T20:02:34;5.93;;;4.95;;
13455;SDS011;6800;50.940;6.940;2022-08-11T20:06:53;6.30;;;5.03;;
13455;SDS011;6800;50.940;6.940;2022-08-11T20:11:17;5.90;;;4.80;;
13455;SDS011;6800;50.940;6.940;2022-08-11T20:15:37;5.38;;;4.43;;
13455;SDS011;6800;50.940;6.940;2022-08-11T20:19:59;4.97;;;4.47;;
13455;SDS011;6800;50.940;6.940;2022-08-11T20:24:20;5.90;;;4.70;;
13455;SDS011;6800;50.940;6.940;2022-08-11T20:28:40;7.97;;;5.05;;
13455;SDS011;6800;50.940;6.940;2022-08-11T20:33:00;4.60;;;4.07;;
13455;SDS011;6800;50.940;6.940;2022-08-11T20:37:19;7.00;;;3.95;;
13455;SDS011;6800;50.940;6.940;2022-08-11T20:41:40;5.57;;;4.10;;
13455;SDS011;6800;50.940;6.940;2022-08-11T20:46:01;5.30;;;4.25;;
13455;SDS011;6800;50.940;6.940;2022-08-11T20:50:22;4.97;;;4.47;;
13455;SDS011;6800;50.940;6.940;2022-08-11T20:54:44;4.60;;;4.15;;
13455;SDS011;6800;50.940;6.940;2022-08-11T20:59:04;4.90;;;4.35;;
13455;SDS011;6800;50.940;6.940;2022-08-11T21:03:25;5.82;;;3.85;;
13455;SDS011;6800;50.940;6.940;2022-08-11T21:07:45;6.43;;;4.00;;
13455;SDS011;6800;50.940;6.940;2022-08-11T21:12:06;5.60;;;3.75;;
13455;SDS011;6800;50.940;6.940;2022-08-11T21:16:27;4.03;;;3.40;;
13455;SDS011;6800;50.940;6.940;2022-08-11T21:20:50;6.60;;;3.55;;
13455;SDS011;6800;50.940;6.940;2022-08-11T21:25:09;6.03;;;4.28;;
13455;SDS011;6800;50.940;6.940;2022-08-11T21:29:30;5.25;;;3.65;;
13455;SDS011;6800;50.940;6.940;2022-08-11T21:33:51;4.55;;;3.90;;
13455;SDS011;6800;50.940;6.940;2022-08-11T21:38:13;5.40;;;3.65;;
13455;SDS011;6800;50.940;6.940;2022-08-11T21:42:35;4.45;;;3.95;;
13455;SDS011;6800;50.940;6.940;2022-08-11T21:46:58;4.82;;;3.72;;
13455;SDS011;6800;50.940;6.940;2022-08-11T21:51:18;4.38;;;3.60;;
13455;SDS011;6800;50.940;6.940;2022-08-11T21:55:37;6.22;;;4.05;;
13455;SDS011;6800;50.940;6.940;2022-08-11T21:59:57;4.95;;;3.70;;
13455;SDS011;6800;50.940;6.940;2022-08-11T22:04:17;3.97;;;3.67;;
13455;SDS011;6800;50.940;6.940;2022-08-11T22:08:37;4.70;;;4.03;;
13455;SDS011;6800;50.940;6.940;2022-08-11T22:12:57;4.50;;;4.10;;
13455;SDS011;6800;50.940;6.940;2022-08-11T22:17:16;5.25;;;4.30;;
13455;SDS011;6800;50.940;6.940;2022-08-11T22:21:35;4.07;;;3.65;;
13455;SDS011;6800;50.940;6.940;2022-08-11T22:25:54;6.90;;;4.40;;
13455;SDS011;6800;50.940;6.940;2022-08-11T22:30:13;5.03;;;4.25;;
13455;SDS011;6800;50.940;6.940;2022-08-11T22:34:33;4.80;;;4.30;;
13455;SDS011;6800;50.940;6.940;2022-08-11T22:38:52;6.10;;;4.07;;
13455;SDS011;6800;50.940;6.940;2022-08-11T22:43:13;6.43;;;4.00;;
13455;SDS011;6800;50.940;6.940;2022-08-11T22:47:32;5.75;;;4.28;;
13455;SDS011;6800;50.940;6.940;2022-08-11T22:51:53;4.22;;;3.83;;
13455;SDS011;6800;50.940;6.940;2022-08-11T22:56:13;4.75;;;3.60;;
13455;SDS011;6800;50.940;6.940;2022-08-11T23:00:32;4.80;;;3.50;;
13455;SDS011;6800;50.940;6.940;2022-08-11T23:04:51;5.50;;;3.28;;
13455;SDS011;6800;50.940;6.940;2022-08-11T23:09:11;5.05;;;3.58;;
13455;SDS011;6800;50.940;6.940;2022-08-11T23:13:31;4.15;;;3.50;;
13455;SDS011;6800;50.940;6.940;2022-08-11T23:17:51;3.55;;;3.25;;
13455;SDS011;6800;50.940;6.940;2022-08-11T23:22:10;4.22;;;3.67;;
13455;SDS011;6800;50.940;6.940;2022-08-11T23:26:30;4.38;;;3.70;;
13455;SDS011;6800;50.940;6.940;2022-08-11T23:30:50;4.28;;;3.33;;
13455;SDS011;6800;50.940;6.940;2022-08-11T23:35:12;5.60;;;4.03;;
13455;SDS011;6800;50.940;6.940;2022-08-11T23:39:31;5.68;;;3.70;;
13455;SDS011;6800;50.940;6.940;2022-08-11T23:43:50;4.00;;;3.60;;
13455;SDS011;6800;50.940;6.940;2022-08-11T23:48:12;3.60;;;3.17;;
13455;SDS011;6800;50.940;6.940;2022-08-11T23:52:33;4.85;;;3.47;;
13455;SDS011;6800;50.940;6.940;2022-08-11T23:56:54;5.13;;;3.70;;
